createdAt,value
2024-01-26T00:01:43.269Z,24.83
2024-01-26T00:04:11.552Z,15.67
2024-01-26T00:06:39.935Z,28.67
2024-01-26T00:09:15.024Z,23.30
2024-01-26T00:11:43.877Z,18.48
2024-01-26T00:14:12.156Z,14.07
2024-01-26T00:16:40.202Z,11.07
2024-01-26T00:19:08.621Z,7.47
2024-01-26T00:21:36.706Z,8.47
2024-01-26T00:24:05.143Z,8.53
2024-01-26T00:26:33.207Z,6.27
2024-01-26T00:29:01.296Z,7.50
2024-01-26T00:31:29.336Z,6.97
2024-01-26T00:33:57.489Z,6.73
2024-01-26T00:36:25.525Z,9.87
2024-01-26T00:38:53.503Z,7.47
2024-01-26T00:41:21.543Z,8.83
2024-01-26T00:43:49.647Z,9.83
2024-01-26T00:46:17.682Z,8.87
2024-01-26T00:48:45.792Z,10.50
2024-01-26T00:51:14.008Z,10.37
2024-01-26T00:53:42.032Z,8.77
2024-01-26T00:56:10.117Z,11.40
2024-01-26T00:58:38.222Z,8.10
2024-01-26T01:01:06.553Z,8.27
2024-01-26T01:03:34.669Z,9.27
2024-01-26T01:06:02.954Z,10.57
2024-01-26T01:08:31.388Z,7.57
2024-01-26T01:10:59.407Z,6.87
2024-01-26T01:13:27.568Z,9.17
2024-01-26T01:15:55.590Z,8.30
2024-01-26T01:18:23.851Z,7.03
2024-01-26T01:20:52.006Z,7.37
2024-01-26T01:23:20.213Z,8.80
2024-01-26T01:25:48.260Z,7.57
2024-01-26T01:28:16.303Z,7.63
2024-01-26T01:30:44.375Z,5.73
2024-01-26T01:33:12.528Z,6.20
2024-01-26T01:35:40.688Z,4.47
2024-01-26T01:38:08.800Z,4.80
2024-01-26T01:43:10.164Z,1.83
2024-01-26T01:45:49.844Z,2.67
2024-01-26T01:48:22.770Z,3.20
2024-01-26T01:50:51.303Z,1.57
2024-01-26T01:53:24.396Z,1.77
2024-01-26T01:55:58.842Z,1.57
2024-01-26T01:58:30.323Z,1.60
2024-01-26T02:01:03.058Z,2.00
2024-01-26T02:03:32.310Z,1.50
2024-01-26T02:06:05.786Z,1.17
2024-01-26T02:08:39.957Z,0.87
2024-01-26T02:11:12.913Z,0.70
2024-01-26T02:13:43.301Z,1.23
2024-01-26T02:16:14.597Z,1.30
2024-01-26T02:18:50.120Z,0.80
2024-01-26T02:21:21.145Z,0.50
2024-01-26T02:23:54.211Z,0.90
2024-01-26T02:26:31.659Z,1.13
2024-01-26T02:28:59.889Z,2.20
2024-01-26T02:31:31.588Z,1.30
2024-01-26T02:34:02.426Z,1.10
2024-01-26T02:36:30.851Z,0.90
2024-01-26T02:39:01.975Z,0.70
2024-01-26T02:41:32.249Z,0.60
2024-01-26T02:44:04.337Z,0.93
2024-01-26T02:46:32.519Z,0.83
2024-01-26T02:49:00.719Z,0.67
2024-01-26T02:51:35.107Z,1.77
2024-01-26T02:54:15.043Z,1.00
2024-01-26T02:56:46.121Z,1.13
2024-01-26T02:59:14.167Z,1.17
2024-01-26T03:01:49.349Z,2.27
2024-01-26T03:04:29.280Z,1.87
2024-01-26T03:07:00.562Z,1.00
2024-01-26T03:09:36.950Z,1.10
2024-01-26T03:12:22.995Z,1.20
2024-01-26T03:15:00.992Z,0.70
2024-01-26T03:17:37.014Z,1.57
2024-01-26T03:20:14.699Z,0.97
2024-01-26T03:22:47.958Z,2.30
2024-01-26T03:25:19.567Z,1.50
2024-01-26T03:27:50.200Z,1.10
2024-01-26T03:30:23.459Z,0.93
2024-01-26T03:32:54.936Z,2.50
2024-01-26T03:35:28.790Z,1.37
2024-01-26T03:38:03.725Z,1.07
2024-01-26T03:40:35.492Z,0.70
2024-01-26T03:43:05.704Z,1.53
2024-01-26T03:45:39.035Z,1.37
2024-01-26T03:48:07.416Z,1.73
2024-01-26T03:50:41.436Z,0.97
2024-01-26T03:53:13.441Z,0.60
2024-01-26T03:55:46.233Z,0.70
2024-01-26T03:58:19.813Z,1.03
2024-01-26T04:00:50.929Z,1.23
2024-01-26T04:03:27.988Z,1.40
2024-01-26T04:06:15.151Z,1.30
2024-01-26T04:08:47.945Z,1.27
2024-01-26T04:11:19.869Z,1.00
2024-01-26T04:13:54.056Z,0.87
2024-01-26T04:16:28.994Z,1.53
2024-01-26T04:19:03.177Z,2.00
2024-01-26T04:21:37.055Z,2.63
2024-01-26T04:24:08.590Z,0.70
2024-01-26T04:26:41.859Z,0.87
2024-01-26T04:29:10.399Z,1.17
2024-01-26T04:31:44.620Z,1.03
2024-01-26T04:34:17.871Z,1.63
2024-01-26T04:36:57.180Z,0.80
2024-01-26T04:39:29.979Z,1.20
2024-01-26T04:42:03.113Z,0.90
2024-01-26T04:44:42.409Z,0.87
2024-01-26T04:47:15.239Z,1.30
2024-01-26T04:49:47.220Z,1.00
2024-01-26T04:52:20.203Z,0.90
2024-01-26T04:54:54.031Z,2.37
2024-01-26T04:57:28.114Z,1.00
2024-01-26T04:59:56.177Z,1.50
2024-01-26T05:02:29.038Z,0.87
2024-01-26T05:05:01.341Z,1.40
2024-01-26T05:07:38.570Z,1.50
2024-01-26T05:10:07.846Z,1.23
2024-01-26T05:12:42.752Z,1.40
2024-01-26T05:15:16.653Z,1.50
2024-01-26T05:17:48.567Z,1.47
2024-01-26T05:20:16.718Z,1.60
2024-01-26T05:22:48.582Z,1.23
2024-01-26T05:25:16.714Z,1.20
2024-01-26T05:27:47.890Z,1.27
2024-01-26T05:30:26.948Z,1.20
2024-01-26T05:32:58.034Z,1.30
2024-01-26T05:35:38.970Z,1.73
2024-01-26T05:38:12.822Z,1.90
2024-01-26T05:40:46.235Z,1.30
2024-01-26T05:43:16.785Z,4.03
2024-01-26T05:45:44.934Z,1.53
2024-01-26T05:48:13.296Z,4.17
2024-01-26T05:50:47.900Z,3.27
2024-01-26T05:53:21.696Z,3.43
2024-01-26T05:55:49.788Z,2.00
2024-01-26T05:58:19.295Z,3.50
2024-01-26T06:00:55.095Z,2.73
2024-01-26T06:03:37.424Z,2.50
2024-01-26T06:06:08.404Z,2.10
2024-01-26T06:08:36.577Z,1.40
2024-01-26T06:11:09.402Z,2.10
2024-01-26T06:13:42.862Z,1.30
2024-01-26T06:16:14.941Z,1.67
2024-01-26T06:18:49.101Z,1.37
2024-01-26T06:21:21.311Z,1.23
2024-01-26T06:23:49.507Z,1.37
2024-01-26T06:26:23.323Z,1.10
2024-01-26T06:28:58.560Z,2.30
2024-01-26T06:31:29.938Z,2.33
2024-01-26T06:34:05.325Z,2.13
2024-01-26T06:36:35.703Z,3.43
2024-01-26T06:39:09.603Z,2.37
2024-01-26T06:41:43.707Z,1.83
2024-01-26T06:44:16.554Z,3.20
2024-01-26T06:46:47.497Z,1.97
2024-01-26T06:49:18.287Z,2.97
2024-01-26T06:51:49.682Z,1.30
2024-01-26T06:54:21.436Z,1.67
2024-01-26T06:56:49.669Z,1.50
2024-01-26T06:59:21.031Z,1.10
2024-01-26T07:02:00.734Z,1.90
2024-01-26T07:04:34.570Z,1.23
2024-01-26T07:07:08.301Z,1.60
2024-01-26T07:09:36.706Z,2.27
2024-01-26T07:12:07.974Z,1.00
2024-01-26T07:14:36.357Z,1.23
2024-01-26T07:17:18.895Z,1.47
2024-01-26T07:19:48.664Z,1.43
2024-01-26T07:22:16.907Z,1.37
2024-01-26T07:24:47.746Z,1.00
2024-01-26T07:27:16.013Z,2.37
2024-01-26T07:29:44.275Z,1.20
2024-01-26T07:32:14.897Z,1.40
2024-01-26T07:34:46.033Z,2.67
2024-01-26T07:37:18.812Z,1.53
2024-01-26T07:42:42.162Z,3.00
2024-01-26T07:45:10.908Z,2.50
2024-01-26T07:47:42.715Z,3.37
2024-01-26T07:50:13.680Z,2.23
2024-01-26T07:52:45.738Z,4.10
2024-01-26T07:55:16.882Z,2.67
2024-01-26T07:57:50.766Z,1.13
2024-01-26T08:00:24.714Z,4.67
2024-01-26T08:02:56.872Z,1.90
2024-01-26T08:05:30.815Z,1.60
2024-01-26T08:08:02.700Z,4.13
2024-01-26T08:10:34.137Z,2.77
2024-01-26T08:13:05.348Z,3.13
2024-01-26T08:15:37.837Z,4.07
2024-01-26T08:18:14.047Z,3.10
2024-01-26T08:21:11.195Z,3.70
2024-01-26T08:24:02.696Z,2.97
2024-01-26T08:26:53.093Z,1.70
2024-01-26T08:29:31.885Z,3.40
2024-01-26T08:32:02.862Z,1.60
2024-01-26T08:34:36.484Z,1.60
2024-01-26T08:37:07.689Z,1.30
2024-01-26T08:39:39.091Z,1.30
2024-01-26T08:42:07.647Z,1.43
2024-01-26T08:44:39.836Z,1.30
2024-01-26T08:47:08.463Z,2.30
2024-01-26T08:49:39.954Z,2.60
2024-01-26T08:52:14.953Z,0.93
2024-01-26T08:54:43.026Z,3.87
2024-01-26T08:57:20.013Z,0.80
2024-01-26T08:59:53.371Z,4.77
2024-01-26T09:02:27.911Z,0.80
2024-01-26T09:05:09.047Z,1.03
2024-01-26T09:07:37.206Z,1.97
2024-01-26T09:10:10.217Z,6.00
2024-01-26T09:12:39.657Z,3.47
2024-01-26T09:15:11.821Z,5.07
2024-01-26T09:17:52.519Z,1.10
2024-01-26T09:23:01.702Z,1.67
2024-01-26T09:25:34.726Z,1.37
2024-01-26T09:28:02.725Z,1.00
2024-01-26T09:30:35.488Z,1.62
2024-01-26T09:33:08.558Z,1.90
2024-01-26T09:35:39.531Z,0.87
2024-01-26T09:38:32.881Z,1.00
2024-01-26T09:41:06.493Z,1.37
2024-01-26T09:43:44.171Z,1.97
2024-01-26T09:46:16.872Z,1.83
2024-01-26T09:48:51.929Z,0.73
2024-01-26T09:51:28.986Z,0.80
2024-01-26T09:54:02.448Z,0.70
2024-01-26T09:56:40.294Z,1.50
2024-01-26T09:59:09.944Z,0.50
2024-01-26T10:01:46.916Z,2.10
2024-01-26T10:04:20.024Z,4.83
2024-01-26T10:06:58.296Z,1.83
2024-01-26T10:09:32.673Z,0.97
2024-01-26T10:12:00.787Z,4.70
2024-01-26T10:14:29.078Z,0.77
2024-01-26T10:17:03.641Z,1.63
2024-01-26T10:19:34.592Z,1.07
2024-01-26T10:22:03.336Z,0.60
2024-01-26T10:24:36.059Z,0.90
2024-01-26T10:27:11.042Z,0.90
2024-01-26T10:29:46.178Z,0.63
2024-01-26T10:32:19.341Z,1.50
2024-01-26T10:34:47.993Z,1.00
2024-01-26T10:37:18.787Z,3.07
2024-01-26T10:39:54.924Z,1.87
2024-01-26T10:42:34.960Z,2.63
2024-01-26T10:45:03.845Z,1.50
2024-01-26T10:47:35.882Z,4.73
2024-01-26T10:50:09.053Z,2.20
2024-01-26T10:52:40.571Z,1.43
2024-01-26T10:55:14.751Z,1.47
2024-01-26T10:57:50.880Z,1.65
2024-01-26T11:00:19.499Z,2.53
2024-01-26T11:02:51.879Z,1.60
2024-01-26T11:05:25.092Z,2.23
2024-01-26T11:07:56.849Z,1.57
2024-01-26T11:10:31.203Z,1.40
2024-01-26T11:13:09.033Z,1.33
2024-01-26T11:15:44.719Z,3.30
2024-01-26T11:18:28.998Z,2.03
2024-01-26T11:21:04.075Z,0.83
2024-01-26T11:23:49.147Z,2.17
2024-01-26T11:26:22.561Z,0.97
2024-01-26T11:28:55.517Z,1.67
2024-01-26T11:31:36.286Z,3.00
2024-01-26T11:34:04.750Z,1.03
2024-01-26T11:36:42.322Z,7.10
2024-01-26T11:39:19.528Z,2.17
2024-01-26T11:41:52.443Z,1.17
2024-01-26T11:44:27.981Z,2.50
2024-01-26T11:46:57.144Z,2.28
2024-01-26T11:49:28.567Z,2.03
2024-01-26T11:52:06.905Z,1.10
2024-01-26T11:54:39.544Z,2.50
2024-01-26T11:57:13.515Z,1.10
2024-01-26T11:59:51.690Z,2.23
2024-01-26T12:02:22.659Z,1.00
2024-01-26T12:05:06.467Z,1.03
2024-01-26T12:07:38.813Z,1.13
2024-01-26T12:10:15.419Z,0.63
2024-01-26T12:12:52.055Z,4.07
2024-01-26T12:15:20.473Z,0.80
2024-01-26T12:17:59.953Z,2.27
2024-01-26T12:20:35.450Z,1.60
2024-01-26T12:23:18.648Z,2.10
2024-01-26T12:25:46.995Z,3.47
2024-01-26T12:28:23.309Z,3.47
2024-01-26T12:30:52.864Z,1.43
2024-01-26T12:33:24.033Z,1.83
2024-01-26T12:35:58.937Z,3.20
2024-01-26T12:38:32.733Z,4.53
2024-01-26T12:41:04.143Z,0.60
2024-01-26T12:43:42.325Z,0.77
2024-01-26T12:46:13.547Z,2.10
2024-01-26T12:48:46.582Z,0.98
2024-01-26T12:51:18.584Z,0.93
2024-01-26T12:53:50.982Z,1.20
2024-01-26T12:56:23.975Z,0.90
2024-01-26T12:58:56.903Z,1.00
2024-01-26T13:01:25.284Z,2.87
2024-01-26T13:03:59.563Z,0.70
2024-01-26T13:06:33.885Z,0.83
2024-01-26T13:09:09.285Z,0.97
2024-01-26T13:11:42.884Z,1.03
2024-01-26T13:14:18.936Z,0.83
2024-01-26T13:16:52.995Z,2.10
2024-01-26T13:19:44.224Z,1.20
2024-01-26T13:22:17.665Z,1.50
2024-01-26T13:24:50.812Z,1.70
2024-01-26T13:27:24.626Z,1.93
2024-01-26T13:29:59.808Z,3.97
2024-01-26T13:32:32.280Z,1.80
2024-01-26T13:35:02.260Z,1.87
2024-01-26T13:37:35.164Z,2.63
2024-01-26T13:40:07.393Z,2.00
2024-01-26T13:42:35.678Z,1.30
2024-01-26T13:45:15.866Z,1.80
2024-01-26T13:47:57.236Z,4.10
2024-01-26T13:50:47.115Z,1.37
2024-01-26T13:53:24.795Z,1.77
2024-01-26T13:56:01.536Z,4.47
2024-01-26T13:58:39.981Z,2.03
2024-01-26T14:03:50.599Z,1.50
2024-01-26T14:06:34.720Z,2.17
2024-01-26T14:09:08.517Z,2.70
2024-01-26T14:11:42.501Z,1.63
2024-01-26T14:14:16.462Z,2.70
2024-01-26T14:16:53.133Z,2.20
2024-01-26T14:19:24.334Z,3.00
2024-01-26T14:21:54.875Z,2.27
2024-01-26T14:24:23.191Z,3.53
2024-01-26T14:27:05.759Z,3.00
2024-01-26T14:29:36.925Z,1.47
2024-01-26T14:32:10.898Z,1.73
2024-01-26T14:34:41.917Z,2.17
2024-01-26T14:37:18.438Z,1.80
2024-01-26T14:40:07.703Z,2.70
2024-01-26T14:42:35.999Z,1.87
2024-01-26T14:45:15.199Z,3.33
2024-01-26T14:47:49.544Z,1.40
2024-01-26T14:50:28.047Z,2.63
2024-01-26T14:53:02.172Z,1.43
2024-01-26T14:55:37.264Z,2.90
2024-01-26T14:58:06.235Z,2.67
2024-01-26T15:00:40.987Z,1.77
2024-01-26T15:03:22.354Z,1.80
2024-01-26T15:05:54.234Z,1.73
2024-01-26T15:08:25.114Z,3.40
2024-01-26T15:10:59.607Z,2.83
2024-01-26T15:13:31.129Z,1.97
2024-01-26T15:15:59.466Z,4.00
2024-01-26T15:18:35.216Z,4.63
2024-01-26T15:21:22.584Z,1.63
2024-01-26T15:23:52.990Z,3.70
2024-01-26T15:26:21.783Z,4.17
2024-01-26T15:28:53.399Z,4.33
2024-01-26T15:31:29.258Z,2.60
2024-01-26T15:34:02.280Z,2.00
2024-01-26T15:36:41.211Z,4.00
2024-01-26T15:39:11.659Z,2.57
2024-01-26T15:41:46.116Z,1.87
2024-01-26T15:44:20.868Z,1.80
2024-01-26T15:46:54.570Z,2.37
2024-01-26T15:49:31.379Z,5.77
2024-01-26T15:52:02.503Z,4.50
2024-01-26T15:54:37.358Z,1.63
2024-01-26T15:57:10.226Z,2.57
2024-01-26T15:59:45.692Z,2.90
2024-01-26T16:02:24.488Z,1.90
2024-01-26T16:04:57.713Z,2.17
2024-01-26T16:07:41.835Z,2.97
2024-01-26T16:10:20.161Z,3.03
2024-01-26T16:12:55.427Z,2.70
2024-01-26T16:15:29.748Z,2.47
2024-01-26T16:18:11.364Z,3.53
2024-01-26T16:20:52.519Z,3.90
2024-01-26T16:23:31.236Z,2.50
2024-01-26T16:26:08.205Z,2.17
2024-01-26T16:28:41.464Z,1.77
2024-01-26T16:31:12.859Z,4.40
2024-01-26T16:33:54.169Z,3.40
2024-01-26T16:36:25.015Z,3.60
2024-01-26T16:38:58.012Z,2.53
2024-01-26T16:41:30.963Z,3.43
2024-01-26T16:44:06.823Z,3.00
2024-01-26T16:46:45.096Z,2.80
2024-01-26T16:49:16.027Z,3.33
2024-01-26T16:51:44.171Z,1.87
2024-01-26T16:54:22.116Z,2.27
2024-01-26T16:56:55.556Z,3.67
2024-01-26T16:59:34.859Z,3.87
2024-01-26T17:02:06.181Z,3.67
2024-01-26T17:04:40.568Z,1.30
2024-01-26T17:07:16.506Z,1.67
2024-01-26T17:09:52.889Z,2.17
2024-01-26T17:12:42.183Z,2.60
2024-01-26T17:15:14.939Z,2.97
2024-01-26T17:17:47.878Z,1.50
2024-01-26T17:20:20.794Z,1.87
2024-01-26T17:22:53.553Z,2.53
2024-01-26T17:25:24.413Z,1.60
2024-01-26T17:27:59.165Z,1.93
2024-01-26T17:30:33.225Z,2.43
2024-01-26T17:33:19.909Z,2.53
2024-01-26T17:35:48.214Z,2.10
2024-01-26T17:38:16.365Z,2.03
2024-01-26T17:40:48.284Z,2.47
2024-01-26T17:43:25.140Z,2.70
2024-01-26T17:46:01.802Z,1.97
2024-01-26T17:48:35.740Z,2.47
2024-01-26T17:54:01.084Z,1.73
2024-01-26T17:56:32.173Z,1.90
2024-01-26T17:59:10.249Z,2.80
2024-01-26T18:01:39.876Z,1.87
2024-01-26T18:04:14.038Z,1.73
2024-01-26T18:06:52.968Z,3.13
2024-01-26T18:09:21.707Z,4.00
2024-01-26T18:11:53.303Z,3.77
2024-01-26T18:14:24.163Z,2.40
2024-01-26T18:16:52.254Z,3.27
2024-01-26T18:19:26.509Z,2.33
2024-01-26T18:21:56.064Z,3.63
2024-01-26T18:24:27.480Z,2.23
2024-01-26T18:26:55.602Z,3.53
2024-01-26T18:29:23.865Z,2.50
2024-01-26T18:31:52.346Z,2.53
2024-01-26T18:34:20.657Z,2.97
2024-01-26T18:36:49.028Z,2.00
2024-01-26T18:39:24.208Z,2.43
2024-01-26T18:41:57.865Z,3.03
2024-01-26T18:44:31.064Z,2.00
2024-01-26T18:47:04.957Z,2.47
2024-01-26T18:49:45.516Z,2.10
2024-01-26T18:52:20.924Z,3.13
2024-01-26T18:54:55.477Z,2.40
2024-01-26T18:57:23.583Z,2.33
2024-01-26T18:59:57.907Z,2.23
2024-01-26T19:02:26.604Z,2.47
2024-01-26T19:05:00.705Z,2.03
2024-01-26T19:07:33.541Z,2.03
2024-01-26T19:10:01.813Z,2.27
2024-01-26T19:12:38.891Z,2.73
2024-01-26T19:15:10.911Z,3.83
2024-01-26T19:17:39.299Z,3.77
2024-01-26T19:20:18.356Z,2.10
2024-01-26T19:22:50.196Z,3.13
2024-01-26T19:25:30.472Z,3.47
2024-01-26T19:28:00.070Z,2.63
2024-01-26T19:30:31.729Z,2.10
2024-01-26T19:33:05.541Z,2.83
2024-01-26T19:35:38.896Z,3.37
2024-01-26T19:38:06.961Z,2.93
2024-01-26T19:40:37.388Z,2.67
2024-01-26T19:43:08.559Z,2.67
2024-01-26T19:45:39.459Z,1.90
2024-01-26T19:48:17.571Z,2.43
2024-01-26T19:50:50.269Z,2.70
2024-01-26T19:53:19.070Z,2.43
2024-01-26T19:55:50.151Z,3.00
2024-01-26T19:58:19.896Z,2.77
2024-01-26T20:00:51.397Z,2.13
2024-01-26T20:03:19.497Z,2.30
2024-01-26T20:05:51.683Z,2.53
2024-01-26T20:08:24.532Z,2.03
2024-01-26T20:10:57.879Z,2.63
2024-01-26T20:13:26.068Z,2.97
2024-01-26T20:15:54.294Z,2.63
2024-01-26T20:18:23.865Z,3.90
2024-01-26T20:20:55.085Z,1.97
2024-01-26T20:23:26.746Z,2.40
2024-01-26T20:25:56.236Z,3.73
2024-01-26T20:28:49.989Z,1.93
2024-01-26T20:31:20.946Z,2.10
2024-01-26T20:34:04.493Z,1.77
2024-01-26T20:36:38.277Z,2.00
2024-01-26T20:39:06.630Z,2.13
2024-01-26T20:41:39.744Z,2.10
2024-01-26T20:44:07.992Z,2.47
2024-01-26T20:46:36.119Z,2.23
2024-01-26T20:49:08.439Z,2.20
2024-01-26T20:51:40.495Z,2.00
2024-01-26T20:54:29.000Z,2.53
2024-01-26T20:57:03.181Z,1.47
2024-01-26T20:59:34.239Z,3.90
2024-01-26T21:02:03.877Z,2.30
2024-01-26T21:04:38.546Z,2.10
2024-01-26T21:07:32.016Z,2.23
2024-01-26T21:10:00.166Z,2.77
2024-01-26T21:12:36.438Z,1.87
2024-01-26T21:15:08.406Z,1.17
2024-01-26T21:17:49.497Z,2.00
2024-01-26T21:20:31.975Z,1.83
2024-01-26T21:23:04.676Z,1.53
2024-01-26T21:25:38.609Z,1.03
2024-01-26T21:28:11.935Z,1.67
2024-01-26T21:30:53.357Z,2.20
2024-01-26T21:33:33.207Z,3.97
2024-01-26T21:36:03.751Z,2.47
2024-01-26T21:38:32.102Z,1.37
2024-01-26T21:41:07.045Z,1.37
2024-01-26T21:43:40.867Z,2.20
2024-01-26T21:46:14.005Z,1.53
2024-01-26T21:48:43.053Z,2.23
2024-01-26T21:51:17.271Z,1.17
2024-01-26T21:53:45.637Z,1.07
2024-01-26T21:56:24.537Z,2.83
2024-01-26T21:58:57.522Z,1.97
2024-01-26T22:01:30.288Z,2.33
2024-01-26T22:04:05.889Z,1.93
2024-01-26T22:06:36.712Z,1.10
2024-01-26T22:09:10.270Z,4.83
2024-01-26T22:11:38.540Z,2.87
2024-01-26T22:14:19.107Z,3.83
2024-01-26T22:16:53.367Z,1.20
2024-01-26T22:19:26.330Z,1.27
2024-01-26T22:22:08.521Z,1.97
2024-01-26T22:24:41.643Z,2.27
2024-01-26T22:27:14.362Z,2.90
2024-01-26T22:29:42.757Z,2.93
2024-01-26T22:32:11.410Z,1.70
2024-01-26T22:34:47.457Z,0.97
2024-01-26T22:37:15.744Z,1.63
2024-01-26T22:39:44.151Z,1.53
2024-01-26T22:42:12.301Z,3.33
2024-01-26T22:44:45.249Z,1.57
2024-01-26T22:47:13.619Z,1.77
2024-01-26T22:49:47.765Z,1.37
2024-01-26T22:52:21.526Z,1.33
2024-01-26T22:54:49.519Z,2.77
2024-01-26T22:57:18.415Z,1.43
2024-01-26T22:59:51.408Z,2.53
2024-01-26T23:02:24.495Z,2.63
2024-01-26T23:04:57.465Z,1.90
2024-01-26T23:07:31.241Z,2.03
2024-01-26T23:10:02.108Z,3.33
2024-01-26T23:12:35.844Z,3.10
2024-01-26T23:15:08.917Z,1.63
2024-01-26T23:17:53.661Z,0.67
2024-01-26T23:20:26.431Z,2.07
2024-01-26T23:22:54.521Z,3.27
2024-01-26T23:25:25.357Z,2.43
2024-01-26T23:27:58.171Z,1.70
2024-01-26T23:30:31.469Z,2.13
2024-01-26T23:32:59.606Z,2.67
2024-01-26T23:35:28.905Z,2.33
2024-01-26T23:37:56.972Z,1.33
2024-01-26T23:40:25.094Z,3.80
2024-01-26T23:42:57.838Z,1.83
2024-01-26T23:45:57.480Z,1.30
2024-01-26T23:48:35.416Z,0.90
2024-01-26T23:51:06.275Z,3.10
2024-01-26T23:53:34.420Z,2.30
2024-01-26T23:56:02.616Z,3.00
2024-01-26T23:58:33.348Z,3.33
